createdAt,value
2022-12-03T00:01:47.365Z,19.70
2022-12-03T00:04:15.632Z,19.70
2022-12-03T00:06:45.306Z,19.70
2022-12-03T00:09:13.717Z,19.70
2022-12-03T00:11:42.001Z,19.70
2022-12-03T00:14:10.328Z,19.70
2022-12-03T00:16:38.607Z,19.70
2022-12-03T00:19:07.631Z,19.60
2022-12-03T00:21:35.959Z,19.60
2022-12-03T00:24:06.099Z,19.60
2022-12-03T00:26:34.417Z,19.70
2022-12-03T00:29:02.724Z,19.70
2022-12-03T00:31:31.067Z,19.60
2022-12-03T00:33:59.423Z,19.60
2022-12-03T00:36:27.722Z,19.60
2022-12-03T00:38:56.025Z,19.60
2022-12-03T00:41:25.768Z,19.60
2022-12-03T00:43:57.325Z,19.60
2022-12-03T00:46:25.860Z,19.60
2022-12-03T00:48:54.214Z,19.60
2022-12-03T00:51:22.481Z,19.60
2022-12-03T00:53:50.760Z,19.60
2022-12-03T00:56:19.039Z,19.60
2022-12-03T00:58:48.789Z,19.60
2022-12-03T01:01:17.146Z,19.50
2022-12-03T01:03:45.487Z,19.50
2022-12-03T01:06:13.797Z,19.50
2022-12-03T01:08:42.112Z,19.50
2022-12-03T01:11:30.501Z,19.50
2022-12-03T01:14:00.118Z,19.40
2022-12-03T01:16:28.390Z,19.50
2022-12-03T01:18:56.704Z,19.50
2022-12-03T01:21:24.972Z,19.40
2022-12-03T01:23:53.280Z,19.40
2022-12-03T01:26:21.551Z,19.50
2022-12-03T01:28:49.805Z,19.40
2022-12-03T01:31:40.153Z,19.40
2022-12-03T01:34:08.476Z,19.40
2022-12-03T01:36:36.744Z,19.40
2022-12-03T01:39:09.230Z,19.30
2022-12-03T01:41:37.572Z,19.50
2022-12-03T01:44:06.669Z,19.40
2022-12-03T01:46:39.333Z,19.40
2022-12-03T01:49:07.708Z,19.30
2022-12-03T01:51:41.239Z,19.30
2022-12-03T01:54:15.979Z,19.30
2022-12-03T01:56:46.049Z,19.30
2022-12-03T01:59:16.256Z,19.30
2022-12-03T02:01:46.008Z,19.30
2022-12-03T02:04:17.523Z,19.30
2022-12-03T02:06:45.907Z,19.30
2022-12-03T02:09:14.751Z,19.20
2022-12-03T02:11:44.146Z,19.20
2022-12-03T02:14:15.533Z,19.20
2022-12-03T02:16:48.277Z,19.20
2022-12-03T02:19:22.479Z,19.20
2022-12-03T02:21:54.846Z,19.20
2022-12-03T02:24:28.070Z,19.20
2022-12-03T02:26:57.698Z,19.20
2022-12-03T02:29:28.116Z,19.20
2022-12-03T02:31:56.531Z,19.20
2022-12-03T02:34:38.065Z,19.20
2022-12-03T02:37:07.050Z,19.20
2022-12-03T02:39:35.644Z,19.20
2022-12-03T02:42:22.895Z,19.20
2022-12-03T02:44:51.593Z,19.10
2022-12-03T02:47:22.165Z,19.10
2022-12-03T02:49:50.504Z,19.10
2022-12-03T02:52:24.861Z,19.10
2022-12-03T02:54:55.054Z,19.20
2022-12-03T02:57:28.185Z,19.20
2022-12-03T02:59:58.913Z,19.10
2022-12-03T03:02:28.209Z,19.10
2022-12-03T03:05:03.220Z,19.00
2022-12-03T03:07:31.611Z,19.10
2022-12-03T03:10:02.260Z,19.10
2022-12-03T03:12:37.607Z,19.10
2022-12-03T03:15:08.665Z,19.10
2022-12-03T03:17:36.972Z,19.00
2022-12-03T03:20:07.404Z,19.10
2022-12-03T03:22:38.431Z,19.10
2022-12-03T03:25:09.788Z,19.00
2022-12-03T03:27:39.485Z,19.00
2022-12-03T03:30:10.966Z,19.00
2022-12-03T03:32:39.511Z,19.00
2022-12-03T03:35:08.409Z,19.00
2022-12-03T03:37:36.719Z,19.00
2022-12-03T03:40:05.576Z,19.00
2022-12-03T03:42:33.907Z,19.00
2022-12-03T03:45:03.541Z,19.00
2022-12-03T03:47:31.850Z,19.00
2022-12-03T03:50:00.188Z,19.00
2022-12-03T03:52:28.472Z,18.90
2022-12-03T03:54:59.235Z,18.90
2022-12-03T03:57:27.570Z,18.90
2022-12-03T03:59:55.937Z,18.90
2022-12-03T04:02:26.040Z,18.90
2022-12-03T04:04:54.581Z,18.90
2022-12-03T04:07:23.040Z,18.90
2022-12-03T04:09:53.736Z,18.90
2022-12-03T04:12:41.233Z,18.90
2022-12-03T04:15:12.036Z,18.90
2022-12-03T04:17:42.798Z,18.80
2022-12-03T04:20:15.957Z,18.90
2022-12-03T04:22:43.356Z,18.80
2022-12-03T04:25:29.373Z,18.80
2022-12-03T04:28:17.217Z,18.90
2022-12-03T04:30:45.580Z,18.80
2022-12-03T04:33:34.046Z,18.80
2022-12-03T04:36:03.914Z,18.80
2022-12-03T04:38:34.668Z,18.80
2022-12-03T04:41:04.079Z,18.80
2022-12-03T04:43:57.701Z,18.80
2022-12-03T04:46:28.257Z,18.80
2022-12-03T04:48:57.976Z,18.80
2022-12-03T04:51:29.624Z,18.80
2022-12-03T04:53:58.001Z,18.80
2022-12-03T04:56:26.342Z,18.70
2022-12-03T04:58:57.373Z,18.70
2022-12-03T05:01:34.024Z,18.80
2022-12-03T05:04:03.805Z,18.70
2022-12-03T05:06:32.134Z,18.70
2022-12-03T05:09:00.413Z,18.70
2022-12-03T05:11:28.744Z,18.70
2022-12-03T05:13:57.037Z,18.70
2022-12-03T05:16:27.894Z,18.70
2022-12-03T05:18:56.219Z,18.70
2022-12-03T05:21:25.858Z,18.70
2022-12-03T05:23:56.558Z,18.70
2022-12-03T05:26:31.012Z,18.70
2022-12-03T05:29:01.159Z,18.70
2022-12-03T05:31:32.199Z,18.70
2022-12-03T05:34:04.536Z,18.70
2022-12-03T05:36:36.607Z,18.70
2022-12-03T05:39:04.954Z,18.70
2022-12-03T05:41:50.775Z,18.60
2022-12-03T05:44:21.469Z,18.70
2022-12-03T05:46:55.876Z,18.70
2022-12-03T05:49:27.027Z,18.60
2022-12-03T05:51:59.436Z,18.70
2022-12-03T05:54:27.724Z,18.60
2022-12-03T05:57:01.650Z,18.60
2022-12-03T05:59:29.920Z,18.70
2022-12-03T06:02:00.060Z,18.60
2022-12-03T06:04:28.470Z,18.60
2022-12-03T06:06:56.778Z,18.60
2022-12-03T06:09:26.408Z,18.60
2022-12-03T06:11:57.195Z,18.60
2022-12-03T06:14:25.539Z,18.60
2022-12-03T06:17:01.140Z,18.60
2022-12-03T06:19:29.508Z,18.60
2022-12-03T06:21:57.823Z,18.60
2022-12-03T06:24:30.024Z,18.50
2022-12-03T06:27:00.785Z,18.60
2022-12-03T06:29:29.098Z,18.60
2022-12-03T06:32:03.123Z,18.60
2022-12-03T06:34:31.477Z,18.60
2022-12-03T06:37:05.203Z,18.60
2022-12-03T06:39:34.867Z,18.60
2022-12-03T06:42:03.193Z,18.60
2022-12-03T06:44:34.968Z,18.60
2022-12-03T06:47:03.428Z,18.60
2022-12-03T06:49:37.163Z,18.50
2022-12-03T06:52:05.677Z,18.60
2022-12-03T06:54:35.366Z,18.60
2022-12-03T06:57:06.696Z,18.60
2022-12-03T06:59:37.445Z,18.60
2022-12-03T07:02:08.207Z,18.60
2022-12-03T07:04:36.559Z,18.60
2022-12-03T07:07:07.895Z,18.70
2022-12-03T07:09:39.848Z,18.70
2022-12-03T07:12:11.131Z,18.80
2022-12-03T07:14:39.409Z,18.80
2022-12-03T07:17:07.720Z,18.90
2022-12-03T07:19:39.034Z,18.90
2022-12-03T07:22:07.315Z,19.00
2022-12-03T07:24:36.997Z,19.10
2022-12-03T07:27:08.125Z,19.10
2022-12-03T07:29:38.749Z,19.20
2022-12-03T07:32:07.379Z,19.20
2022-12-03T07:34:38.704Z,19.20
2022-12-03T07:37:10.604Z,19.30
2022-12-03T07:39:41.411Z,19.30
2022-12-03T07:42:10.268Z,19.30
2022-12-03T07:44:38.548Z,19.30
2022-12-03T07:47:06.907Z,19.40
2022-12-03T07:49:35.301Z,19.40
2022-12-03T07:52:03.612Z,19.40
2022-12-03T07:54:31.950Z,19.40
2022-12-03T07:57:02.088Z,19.40
2022-12-03T07:59:35.834Z,19.50
2022-12-03T08:02:10.293Z,19.50
2022-12-03T08:04:40.169Z,19.50
2022-12-03T08:07:14.448Z,19.60
2022-12-03T08:09:42.860Z,19.60
2022-12-03T08:12:20.349Z,19.60
2022-12-03T08:14:48.628Z,19.60
2022-12-03T08:17:22.957Z,19.60
2022-12-03T08:19:53.980Z,19.70
2022-12-03T08:22:22.291Z,19.70
2022-12-03T08:24:50.845Z,19.80
2022-12-03T08:27:20.712Z,19.70
2022-12-03T08:29:49.049Z,19.80
2022-12-03T08:32:17.444Z,19.80
2022-12-03T08:34:46.093Z,19.90
2022-12-03T08:37:16.825Z,19.90
2022-12-03T08:39:46.249Z,19.90
2022-12-03T08:42:34.978Z,19.90
2022-12-03T08:45:40.966Z,19.90
2022-12-03T08:48:35.790Z,19.90
2022-12-03T08:51:12.692Z,20.00
2022-12-03T08:53:45.846Z,20.00
2022-12-03T08:56:22.800Z,20.00
2022-12-03T08:58:53.063Z,20.10
2022-12-03T09:01:33.611Z,20.10
2022-12-03T09:04:29.612Z,20.10
2022-12-03T09:06:58.172Z,20.10
2022-12-03T09:09:28.451Z,20.10
2022-12-03T09:11:58.928Z,20.20
2022-12-03T09:14:27.245Z,20.20
2022-12-03T09:16:57.011Z,20.20
2022-12-03T09:19:25.561Z,20.20
2022-12-03T09:21:53.973Z,20.20
2022-12-03T09:24:22.311Z,20.30
2022-12-03T09:26:50.637Z,20.30
2022-12-03T09:29:21.505Z,20.20
2022-12-03T09:32:00.323Z,20.20
2022-12-03T09:34:28.682Z,20.20
2022-12-03T09:37:00.144Z,20.20
2022-12-03T09:39:28.485Z,20.30
2022-12-03T09:41:56.791Z,20.40
2022-12-03T09:44:25.098Z,20.40
2022-12-03T09:46:59.836Z,20.30
2022-12-03T09:49:29.488Z,20.40
2022-12-03T09:51:57.809Z,20.40
2022-12-03T09:54:27.398Z,20.40
2022-12-03T09:57:00.001Z,20.40
2022-12-03T09:59:31.413Z,20.40
2022-12-03T10:02:00.241Z,20.40
2022-12-03T10:04:30.459Z,20.40
2022-12-03T10:06:59.055Z,20.40
2022-12-03T10:09:28.374Z,20.40
2022-12-03T10:11:56.831Z,20.40
2022-12-03T10:14:25.201Z,20.40
2022-12-03T10:16:53.676Z,20.40
2022-12-03T10:19:25.758Z,20.40
2022-12-03T10:21:55.969Z,20.40
2022-12-03T10:24:26.574Z,20.50
2022-12-03T10:26:55.703Z,20.40
2022-12-03T10:29:33.633Z,20.50
2022-12-03T10:32:03.411Z,20.50
2022-12-03T10:34:32.933Z,20.40
2022-12-03T10:37:16.841Z,20.40
2022-12-03T10:39:58.875Z,20.40
2022-12-03T10:42:29.083Z,20.40
2022-12-03T10:45:13.712Z,20.40
2022-12-03T10:47:42.205Z,20.40
2022-12-03T10:50:16.835Z,20.40
2022-12-03T10:52:46.806Z,20.40
2022-12-03T10:55:15.283Z,20.40
2022-12-03T10:57:45.876Z,20.40
2022-12-03T11:00:17.559Z,20.40
2022-12-03T11:02:47.414Z,20.40
2022-12-03T11:05:21.380Z,20.30
2022-12-03T11:07:51.051Z,20.30
2022-12-03T11:10:19.685Z,20.40
2022-12-03T11:13:23.395Z,20.30
2022-12-03T11:15:52.936Z,20.30
2022-12-03T11:18:53.787Z,20.30
2022-12-03T11:21:22.228Z,20.30
2022-12-03T11:24:18.564Z,20.30
2022-12-03T11:27:26.544Z,20.30
2022-12-03T11:29:56.398Z,20.20
2022-12-03T11:33:07.324Z,20.30
2022-12-03T11:36:03.675Z,20.30
2022-12-03T11:38:53.275Z,20.20
2022-12-03T11:41:28.434Z,20.20
2022-12-03T11:44:06.592Z,20.20
2022-12-03T11:46:41.518Z,20.20
2022-12-03T11:49:28.284Z,20.20
2022-12-03T11:51:56.774Z,20.20
2022-12-03T11:54:27.480Z,20.20
2022-12-03T11:56:58.209Z,20.10
2022-12-03T11:59:27.610Z,20.20
2022-12-03T12:02:16.975Z,20.20
2022-12-03T12:04:47.542Z,20.20
2022-12-03T12:07:39.495Z,20.10
2022-12-03T12:10:08.551Z,20.10
2022-12-03T12:12:40.833Z,20.10
2022-12-03T12:15:34.578Z,20.10
2022-12-03T12:18:36.222Z,20.10
2022-12-03T12:21:47.727Z,20.10
2022-12-03T12:24:38.574Z,20.10
2022-12-03T12:27:10.554Z,20.00
2022-12-03T12:29:41.780Z,20.00
2022-12-03T12:32:25.432Z,20.00
2022-12-03T12:35:01.166Z,20.10
2022-12-03T12:37:34.460Z,20.00
2022-12-03T12:40:03.709Z,20.10
2022-12-03T12:42:33.925Z,20.00
2022-12-03T12:45:12.668Z,20.00
2022-12-03T12:47:50.143Z,20.00
2022-12-03T12:50:19.098Z,19.90
2022-12-03T12:52:52.695Z,19.90
2022-12-03T12:55:21.410Z,19.90
2022-12-03T12:57:49.908Z,19.90
2022-12-03T13:00:23.093Z,19.90
2022-12-03T13:02:53.036Z,19.90
2022-12-03T13:05:21.437Z,19.90
2022-12-03T13:07:52.902Z,19.90
2022-12-03T13:10:37.801Z,19.80
2022-12-03T13:13:38.677Z,19.80
2022-12-03T13:16:13.385Z,19.80
2022-12-03T13:18:44.366Z,19.80
2022-12-03T13:21:25.696Z,19.80
2022-12-03T13:23:58.219Z,19.80
2022-12-03T13:26:36.565Z,19.90
2022-12-03T13:29:08.413Z,19.80
2022-12-03T13:31:43.437Z,19.80
2022-12-03T13:34:14.336Z,19.80
2022-12-03T13:36:43.345Z,19.80
2022-12-03T13:39:14.641Z,19.70
2022-12-03T13:44:45.214Z,19.70
2022-12-03T13:47:17.936Z,19.70
2022-12-03T13:49:47.936Z,19.70
2022-12-03T13:52:17.654Z,19.70
2022-12-03T13:55:02.385Z,19.70
2022-12-03T13:57:30.777Z,19.70
2022-12-03T14:00:01.709Z,19.70
2022-12-03T14:02:31.409Z,19.60
2022-12-03T14:05:00.604Z,19.60
2022-12-03T14:07:29.342Z,19.60
2022-12-03T14:10:00.082Z,19.60
2022-12-03T14:12:33.392Z,19.60
2022-12-03T14:15:03.147Z,19.60
2022-12-03T14:17:32.823Z,19.60
2022-12-03T14:20:06.761Z,19.70
2022-12-03T14:22:37.890Z,19.70
2022-12-03T14:25:09.839Z,19.70
2022-12-03T14:27:38.301Z,19.70
2022-12-03T14:30:24.842Z,19.70
2022-12-03T14:32:54.533Z,19.70
2022-12-03T14:35:40.422Z,19.80
2022-12-03T14:38:08.759Z,19.90
2022-12-03T14:40:39.502Z,19.90
2022-12-03T14:43:07.842Z,19.90
2022-12-03T14:45:37.313Z,19.90
2022-12-03T14:48:07.255Z,19.90
2022-12-03T14:50:35.646Z,20.00
2022-12-03T14:53:06.317Z,20.00
2022-12-03T14:55:53.616Z,19.90
2022-12-03T14:58:21.935Z,19.90
2022-12-03T15:00:50.306Z,20.00
2022-12-03T15:03:20.051Z,20.00
2022-12-03T15:05:48.431Z,20.00
2022-12-03T15:08:19.829Z,20.10
2022-12-03T15:10:48.344Z,20.00
2022-12-03T15:13:16.781Z,20.10
2022-12-03T15:15:45.084Z,20.00
2022-12-03T15:18:13.373Z,20.00
2022-12-03T15:20:43.055Z,20.00
2022-12-03T15:23:14.880Z,20.00
2022-12-03T15:25:43.236Z,20.10
2022-12-03T15:28:11.597Z,20.10
2022-12-03T15:30:39.938Z,20.10
2022-12-03T15:33:08.731Z,20.10
2022-12-03T15:35:39.620Z,20.10
2022-12-03T15:38:10.451Z,20.10
2022-12-03T15:40:39.079Z,20.10
2022-12-03T15:43:07.404Z,20.10
2022-12-03T15:45:35.813Z,20.20
2022-12-03T15:48:06.009Z,20.20
2022-12-03T15:50:39.697Z,20.20
2022-12-03T15:53:09.756Z,20.20
2022-12-03T15:55:57.002Z,20.20
2022-12-03T15:58:25.397Z,20.20
2022-12-03T16:00:53.733Z,20.20
2022-12-03T16:03:22.171Z,20.20
2022-12-03T16:05:54.088Z,20.30
2022-12-03T16:08:26.840Z,20.30
2022-12-03T16:10:55.130Z,20.30
2022-12-03T16:13:28.909Z,20.30
2022-12-03T16:15:57.274Z,20.30
2022-12-03T16:18:42.899Z,20.30
2022-12-03T16:21:14.362Z,20.30
2022-12-03T16:23:44.082Z,20.30
2022-12-03T16:26:19.954Z,20.40
2022-12-03T16:28:48.292Z,20.50
2022-12-03T16:31:17.120Z,20.60
2022-12-03T16:33:45.436Z,20.60
2022-12-03T16:36:16.871Z,20.60
2022-12-03T16:38:46.600Z,20.70
2022-12-03T16:41:14.949Z,20.70
2022-12-03T16:43:46.010Z,20.70
2022-12-03T16:46:26.086Z,20.70
2022-12-03T16:49:01.503Z,20.60
2022-12-03T16:51:30.546Z,20.70
2022-12-03T16:54:06.452Z,20.60
2022-12-03T16:56:36.944Z,20.60
2022-12-03T16:59:08.054Z,20.60
2022-12-03T17:01:36.576Z,20.60
2022-12-03T17:04:04.962Z,20.70
2022-12-03T17:06:36.438Z,20.60
2022-12-03T17:09:07.450Z,20.60
2022-12-03T17:11:42.729Z,20.60
2022-12-03T17:14:13.468Z,20.60
2022-12-03T17:16:41.746Z,20.50
2022-12-03T17:19:10.184Z,20.50
2022-12-03T17:21:38.595Z,20.60
2022-12-03T17:24:08.974Z,20.50
2022-12-03T17:26:37.322Z,20.50
2022-12-03T17:29:10.916Z,20.50
2022-12-03T17:31:42.611Z,20.60
2022-12-03T17:34:11.349Z,20.60
2022-12-03T17:36:39.670Z,20.50
2022-12-03T17:39:09.322Z,20.50
2022-12-03T17:41:37.644Z,20.50
2022-12-03T17:44:11.380Z,20.50
2022-12-03T17:46:44.182Z,20.40
2022-12-03T17:49:12.547Z,20.40
2022-12-03T17:51:43.440Z,20.50
2022-12-03T17:54:14.144Z,20.50
2022-12-03T17:56:43.865Z,20.40
2022-12-03T17:59:14.505Z,20.40
2022-12-03T18:01:47.448Z,20.40
2022-12-03T18:04:18.386Z,20.40
2022-12-03T18:06:46.739Z,20.40
2022-12-03T18:09:16.404Z,20.40
2022-12-03T18:11:47.582Z,20.30
2022-12-03T18:14:15.913Z,20.40
2022-12-03T18:16:44.258Z,20.30
2022-12-03T18:19:12.624Z,20.30
2022-12-03T18:21:40.889Z,20.30
2022-12-03T18:24:11.355Z,20.30
2022-12-03T18:26:42.594Z,20.30
2022-12-03T18:29:16.323Z,20.30
2022-12-03T18:31:54.919Z,20.30
2022-12-03T18:34:26.461Z,20.30
2022-12-03T18:36:54.876Z,20.20
2022-12-03T18:39:30.009Z,20.20
2022-12-03T18:42:04.324Z,20.30
2022-12-03T18:44:33.896Z,20.20
2022-12-03T18:47:05.091Z,20.20
2022-12-03T18:49:33.525Z,20.20
2022-12-03T18:52:04.243Z,20.30
2022-12-03T18:54:33.046Z,20.30
2022-12-03T18:57:04.460Z,20.30
2022-12-03T18:59:34.898Z,20.40
2022-12-03T19:02:03.220Z,20.30
2022-12-03T19:04:34.014Z,20.40
2022-12-03T19:07:03.649Z,20.40
2022-12-03T19:09:32.134Z,20.40
2022-12-03T19:12:08.578Z,20.40
2022-12-03T19:14:39.676Z,20.40
2022-12-03T19:17:10.195Z,20.40
2022-12-03T19:19:38.458Z,20.40
2022-12-03T19:22:09.186Z,20.40
2022-12-03T19:24:37.498Z,20.40
2022-12-03T19:27:07.138Z,20.40
2022-12-03T19:29:37.566Z,20.40
2022-12-03T19:32:08.907Z,20.40
2022-12-03T19:34:38.062Z,20.30
2022-12-03T19:37:10.037Z,20.30
2022-12-03T19:39:38.406Z,20.30
2022-12-03T19:42:08.241Z,20.30
2022-12-03T19:44:41.128Z,20.30
2022-12-03T19:47:09.438Z,20.30
2022-12-03T19:49:37.705Z,20.30
2022-12-03T19:52:06.218Z,20.30
2022-12-03T19:54:38.254Z,20.30
2022-12-03T19:57:12.389Z,20.30
2022-12-03T19:59:40.773Z,20.30
2022-12-03T20:02:10.350Z,20.30
2022-12-03T20:04:38.737Z,20.30
2022-12-03T20:07:09.786Z,20.20
2022-12-03T20:09:41.529Z,20.20
2022-12-03T20:12:14.138Z,20.30
2022-12-03T20:14:42.505Z,20.20
2022-12-03T20:17:13.555Z,20.20
2022-12-03T20:19:41.897Z,20.20
2022-12-03T20:22:12.259Z,20.20
2022-12-03T20:24:41.885Z,20.20
2022-12-03T20:27:12.654Z,20.20
2022-12-03T20:29:42.300Z,20.20
2022-12-03T20:32:15.668Z,20.10
2022-12-03T20:34:48.590Z,20.10
2022-12-03T20:37:17.005Z,20.10
2022-12-03T20:39:46.520Z,20.10
2022-12-03T20:42:22.001Z,20.10
2022-12-03T20:44:53.657Z,20.10
2022-12-03T20:47:21.970Z,20.10
2022-12-03T20:49:50.267Z,20.10
2022-12-03T20:52:18.619Z,20.10
2022-12-03T20:54:48.455Z,20.10
2022-12-03T20:57:16.771Z,20.10
2022-12-03T20:59:45.139Z,20.10
2022-12-03T21:02:15.006Z,20.00
2022-12-03T21:04:43.301Z,20.00
2022-12-03T21:07:11.622Z,20.00
2022-12-03T21:09:39.888Z,20.00
2022-12-03T21:12:08.567Z,20.00
2022-12-03T21:14:36.877Z,20.00
2022-12-03T21:17:09.459Z,20.00
2022-12-03T21:19:39.591Z,20.00
2022-12-03T21:22:07.952Z,20.00
2022-12-03T21:24:36.300Z,20.00
2022-12-03T21:27:04.668Z,19.90
2022-12-03T21:29:32.978Z,19.90
2022-12-03T21:32:01.247Z,19.90
2022-12-03T21:34:35.923Z,20.00
2022-12-03T21:37:06.496Z,19.90
2022-12-03T21:39:34.947Z,19.90
2022-12-03T21:42:34.597Z,19.80
2022-12-03T21:44:51.821Z,19.90
2022-12-03T21:47:20.185Z,19.90
2022-12-03T21:49:48.628Z,19.80
2022-12-03T21:52:18.284Z,19.80
2022-12-03T21:54:46.770Z,19.90
2022-12-03T21:57:15.092Z,20.20
2022-12-03T21:59:45.363Z,20.50
2022-12-03T22:02:13.815Z,20.60
2022-12-03T22:04:42.262Z,20.70
2022-12-03T22:07:10.576Z,20.80
2022-12-03T22:09:40.520Z,20.80
2022-12-03T22:12:08.911Z,20.70
2022-12-03T22:14:37.403Z,20.70
2022-12-03T22:17:05.669Z,20.40
2022-12-03T22:19:33.977Z,20.30
2022-12-03T22:22:02.274Z,20.20
2022-12-03T22:24:30.645Z,20.20
2022-12-03T22:27:00.281Z,20.10
2022-12-03T22:29:28.616Z,20.10
2022-12-03T22:31:56.962Z,20.00
2022-12-03T22:34:25.318Z,20.00
2022-12-03T22:36:53.665Z,20.00
2022-12-03T22:39:21.957Z,20.00
2022-12-03T22:41:50.248Z,20.00
2022-12-03T22:44:21.604Z,20.00
2022-12-03T22:46:50.000Z,20.00
2022-12-03T22:49:18.353Z,20.00
2022-12-03T22:51:46.936Z,20.00
2022-12-03T22:54:22.462Z,20.00
2022-12-03T22:56:52.219Z,19.90
2022-12-03T22:59:23.180Z,19.80
2022-12-03T23:01:51.504Z,19.90
2022-12-03T23:04:19.912Z,19.80
2022-12-03T23:06:48.314Z,19.80
2022-12-03T23:09:16.645Z,19.80
2022-12-03T23:11:48.261Z,19.70
2022-12-03T23:14:16.541Z,19.70
2022-12-03T23:16:46.202Z,19.80
2022-12-03T23:19:16.228Z,19.60
2022-12-03T23:21:44.509Z,19.60
2022-12-03T23:24:12.816Z,19.60
2022-12-03T23:26:41.107Z,19.60
2022-12-03T23:29:09.385Z,19.60
2022-12-03T23:31:37.785Z,19.50
2022-12-03T23:34:07.604Z,19.50
2022-12-03T23:36:40.932Z,19.50
2022-12-03T23:39:09.210Z,19.50
2022-12-03T23:41:37.497Z,19.50
2022-12-03T23:44:11.100Z,19.50
2022-12-03T23:46:40.117Z,19.50
2022-12-03T23:49:09.821Z,19.50
2022-12-03T23:51:40.949Z,19.50
2022-12-03T23:54:09.796Z,19.30
2022-12-03T23:56:39.381Z,19.40
2022-12-03T23:59:07.705Z,19.40
